sensor_id;sensor_type;location;lat;lon;timestamp;temperature;humidity
66740;DHT22;53653;52.188;8.602;2022-09-11T00:00:31;15.56;88.77
66740;DHT22;53653;52.188;8.602;2022-09-11T00:02:57;15.56;89.21
66740;DHT22;53653;52.188;8.602;2022-09-11T00:05:22;15.54;89.34
66740;DHT22;53653;52.188;8.602;2022-09-11T00:07:50;15.53;89.33
66740;DHT22;53653;52.188;8.602;2022-09-11T00:10:15;15.50;89.25
66740;DHT22;53653;52.188;8.602;2022-09-11T00:12:42;15.49;89.16
66740;DHT22;53653;52.188;8.602;2022-09-11T00:15:08;15.49;89.30
66740;DHT22;53653;52.188;8.602;2022-09-11T00:17:33;15.44;89.29
66740;DHT22;53653;52.188;8.602;2022-09-11T00:19:58;15.44;89.43
66740;DHT22;53653;52.188;8.602;2022-09-11T00:22:25;15.39;89.45
66740;DHT22;53653;52.188;8.602;2022-09-11T00:24:51;15.40;89.44
66740;DHT22;53653;52.188;8.602;2022-09-11T00:27:16;15.36;89.32
66740;DHT22;53653;52.188;8.602;2022-09-11T00:29:42;15.31;89.30
66740;DHT22;53653;52.188;8.602;2022-09-11T00:32:07;15.25;89.46
66740;DHT22;53653;52.188;8.602;2022-09-11T00:34:33;15.23;89.61
66740;DHT22;53653;52.188;8.602;2022-09-11T00:36:59;15.21;89.84
66740;DHT22;53653;52.188;8.602;2022-09-11T00:39:24;15.16;90.11
66740;DHT22;53653;52.188;8.602;2022-09-11T00:41:49;15.14;90.24
66740;DHT22;53653;52.188;8.602;2022-09-11T00:46:44;15.11;90.56
66740;DHT22;53653;52.188;8.602;2022-09-11T00:51:49;15.05;90.58
66740;DHT22;53653;52.188;8.602;2022-09-11T00:54:19;15.04;90.70
66740;DHT22;53653;52.188;8.602;2022-09-11T00:56:46;15.05;90.65
66740;DHT22;53653;52.188;8.602;2022-09-11T00:59:12;15.04;90.56
66740;DHT22;53653;52.188;8.602;2022-09-11T01:01:38;15.08;90.33
66740;DHT22;53653;52.188;8.602;2022-09-11T01:04:04;15.12;90.43
66740;DHT22;53653;52.188;8.602;2022-09-11T01:06:31;15.16;90.45
66740;DHT22;53653;52.188;8.602;2022-09-11T01:08:57;15.19;90.56
66740;DHT22;53653;52.188;8.602;2022-09-11T01:11:38;15.22;90.69
66740;DHT22;53653;52.188;8.602;2022-09-11T01:16:55;15.38;90.44
66740;DHT22;53653;52.188;8.602;2022-09-11T01:22:34;15.39;90.30
66740;DHT22;53653;52.188;8.602;2022-09-11T01:27:57;15.49;89.97
66740;DHT22;53653;52.188;8.602;2022-09-11T01:30:34;15.53;89.92
66740;DHT22;53653;52.188;8.602;2022-09-11T01:36:05;15.64;89.25
66740;DHT22;53653;52.188;8.602;2022-09-11T01:41:21;15.71;88.64
66740;DHT22;53653;52.188;8.602;2022-09-11T01:44:45;15.70;88.78
66740;DHT22;53653;52.188;8.602;2022-09-11T01:46:46;15.62;89.23
66740;DHT22;53653;52.188;8.602;2022-09-11T01:51:46;15.54;89.45
66740;DHT22;53653;52.188;8.602;2022-09-11T01:54:16;15.52;89.64
66740;DHT22;53653;52.188;8.602;2022-09-11T01:56:50;15.49;90.18
66740;DHT22;53653;52.188;8.602;2022-09-11T01:59:24;15.46;90.59
66740;DHT22;53653;52.188;8.602;2022-09-11T02:01:59;15.46;90.85
66740;DHT22;53653;52.188;8.602;2022-09-11T02:04:28;15.54;90.63
66740;DHT22;53653;52.188;8.602;2022-09-11T02:06:57;15.57;90.55
66740;DHT22;53653;52.188;8.602;2022-09-11T02:09:31;15.60;90.57
66740;DHT22;53653;52.188;8.602;2022-09-11T02:11:58;15.62;90.47
66740;DHT22;53653;52.188;8.602;2022-09-11T02:14:35;15.59;90.63
66740;DHT22;53653;52.188;8.602;2022-09-11T02:19:49;15.57;90.78
66740;DHT22;53653;52.188;8.602;2022-09-11T02:22:15;15.47;91.14
66740;DHT22;53653;52.188;8.602;2022-09-11T02:24:41;15.44;91.39
66740;DHT22;53653;52.188;8.602;2022-09-11T02:27:09;15.46;91.67
66740;DHT22;53653;52.188;8.602;2022-09-11T02:29:36;15.47;91.38
66740;DHT22;53653;52.188;8.602;2022-09-11T02:32:03;15.49;91.08
66740;DHT22;53653;52.188;8.602;2022-09-11T02:34:31;15.44;91.41
66740;DHT22;53653;52.188;8.602;2022-09-11T02:45:31;15.42;91.79
66740;DHT22;53653;52.188;8.602;2022-09-11T02:59:26;15.50;91.34
66740;DHT22;53653;52.188;8.602;2022-09-11T03:01:55;15.50;91.33
66740;DHT22;53653;52.188;8.602;2022-09-11T03:04:24;15.56;91.27
66740;DHT22;53653;52.188;8.602;2022-09-11T03:06:50;15.57;91.29
66740;DHT22;53653;52.188;8.602;2022-09-11T03:09:16;15.60;91.27
66740;DHT22;53653;52.188;8.602;2022-09-11T03:11:43;15.66;91.06
66740;DHT22;53653;52.188;8.602;2022-09-11T03:14:09;15.64;90.71
66740;DHT22;53653;52.188;8.602;2022-09-11T03:16:34;15.66;90.73
66740;DHT22;53653;52.188;8.602;2022-09-11T03:19:01;15.67;90.79
66740;DHT22;53653;52.188;8.602;2022-09-11T03:21:27;15.66;90.70
66740;DHT22;53653;52.188;8.602;2022-09-11T03:23:52;15.69;90.73
66740;DHT22;53653;52.188;8.602;2022-09-11T03:26:17;15.70;90.75
66740;DHT22;53653;52.188;8.602;2022-09-11T03:28:43;15.69;90.84
66740;DHT22;53653;52.188;8.602;2022-09-11T03:31:09;15.71;90.71
66740;DHT22;53653;52.188;8.602;2022-09-11T03:33:35;15.73;90.47
66740;DHT22;53653;52.188;8.602;2022-09-11T03:36:01;15.74;90.68
66740;DHT22;53653;52.188;8.602;2022-09-11T03:38:27;15.76;90.65
66740;DHT22;53653;52.188;8.602;2022-09-11T03:40:53;15.77;90.31
66740;DHT22;53653;52.188;8.602;2022-09-11T03:43:19;15.76;90.24
66740;DHT22;53653;52.188;8.602;2022-09-11T03:45:48;15.74;90.58
66740;DHT22;53653;52.188;8.602;2022-09-11T03:48:14;15.71;90.51
66740;DHT22;53653;52.188;8.602;2022-09-11T03:50:40;15.74;90.18
66740;DHT22;53653;52.188;8.602;2022-09-11T03:53:05;15.74;90.01
66740;DHT22;53653;52.188;8.602;2022-09-11T03:55:31;15.71;90.20
66740;DHT22;53653;52.188;8.602;2022-09-11T03:57:57;15.66;90.60
66740;DHT22;53653;52.188;8.602;2022-09-11T04:00:23;15.66;90.47
66740;DHT22;53653;52.188;8.602;2022-09-11T04:02:49;15.66;90.74
66740;DHT22;53653;52.188;8.602;2022-09-11T04:05:14;15.63;90.66
66740;DHT22;53653;52.188;8.602;2022-09-11T04:07:40;15.59;90.92
66740;DHT22;53653;52.188;8.602;2022-09-11T04:10:05;15.60;90.79
66740;DHT22;53653;52.188;8.602;2022-09-11T04:12:31;15.59;91.05
66740;DHT22;53653;52.188;8.602;2022-09-11T04:14:57;15.59;91.12
66740;DHT22;53653;52.188;8.602;2022-09-11T04:17:22;15.63;90.88
66740;DHT22;53653;52.188;8.602;2022-09-11T04:19:48;15.57;91.03
66740;DHT22;53653;52.188;8.602;2022-09-11T04:22:14;15.50;91.34
66740;DHT22;53653;52.188;8.602;2022-09-11T04:24:39;15.56;91.35
66740;DHT22;53653;52.188;8.602;2022-09-11T04:27:04;15.54;91.24
66740;DHT22;53653;52.188;8.602;2022-09-11T04:29:30;15.52;91.36
66740;DHT22;53653;52.188;8.602;2022-09-11T04:31:57;15.42;91.81
66740;DHT22;53653;52.188;8.602;2022-09-11T04:34:22;15.39;91.98
66740;DHT22;53653;52.188;8.602;2022-09-11T04:36:47;15.39;92.28
66740;DHT22;53653;52.188;8.602;2022-09-11T04:39:13;15.42;92.37
66740;DHT22;53653;52.188;8.602;2022-09-11T04:41:38;15.43;92.16
66740;DHT22;53653;52.188;8.602;2022-09-11T04:44:03;15.43;91.96
66740;DHT22;53653;52.188;8.602;2022-09-11T04:46:29;15.47;91.51
66740;DHT22;53653;52.188;8.602;2022-09-11T04:48:56;15.52;91.17
66740;DHT22;53653;52.188;8.602;2022-09-11T04:51:28;15.47;91.41
66740;DHT22;53653;52.188;8.602;2022-09-11T04:53:55;15.49;91.19
66740;DHT22;53653;52.188;8.602;2022-09-11T04:56:25;15.47;91.22
66740;DHT22;53653;52.188;8.602;2022-09-11T04:59:06;15.42;91.06
66740;DHT22;53653;52.188;8.602;2022-09-11T05:01:34;15.39;91.50
66740;DHT22;53653;52.188;8.602;2022-09-11T05:03:59;15.35;91.72
66740;DHT22;53653;52.188;8.602;2022-09-11T05:06:26;15.40;91.51
66740;DHT22;53653;52.188;8.602;2022-09-11T05:08:52;15.42;91.63
66740;DHT22;53653;52.188;8.602;2022-09-11T05:11:18;15.39;91.41
66740;DHT22;53653;52.188;8.602;2022-09-11T05:13:47;15.42;91.13
66740;DHT22;53653;52.188;8.602;2022-09-11T05:16:14;15.39;91.41
66740;DHT22;53653;52.188;8.602;2022-09-11T05:18:42;15.39;91.24
66740;DHT22;53653;52.188;8.602;2022-09-11T05:21:14;15.40;90.75
66740;DHT22;53653;52.188;8.602;2022-09-11T05:23:40;15.36;90.91
66740;DHT22;53653;52.188;8.602;2022-09-11T05:26:13;15.36;90.89
66740;DHT22;53653;52.188;8.602;2022-09-11T05:28:39;15.31;91.25
66740;DHT22;53653;52.188;8.602;2022-09-11T05:31:16;15.28;91.41
66740;DHT22;53653;52.188;8.602;2022-09-11T05:33:42;15.28;91.28
66740;DHT22;53653;52.188;8.602;2022-09-11T05:36:09;15.22;91.10
66740;DHT22;53653;52.188;8.602;2022-09-11T05:38:34;15.19;91.45
66740;DHT22;53653;52.188;8.602;2022-09-11T05:41:01;15.18;91.77
66740;DHT22;53653;52.188;8.602;2022-09-11T05:43:26;15.19;91.76
66740;DHT22;53653;52.188;8.602;2022-09-11T05:45:56;15.16;91.77
66740;DHT22;53653;52.188;8.602;2022-09-11T05:48:22;15.12;92.00
66740;DHT22;53653;52.188;8.602;2022-09-11T05:50:58;15.14;92.16
66740;DHT22;53653;52.188;8.602;2022-09-11T05:53:24;15.19;92.15
66740;DHT22;53653;52.188;8.602;2022-09-11T05:55:50;15.23;91.39
66740;DHT22;53653;52.188;8.602;2022-09-11T05:58:16;15.19;91.48
66740;DHT22;53653;52.188;8.602;2022-09-11T06:00:45;15.21;91.47
66740;DHT22;53653;52.188;8.602;2022-09-11T06:03:15;15.19;91.50
66740;DHT22;53653;52.188;8.602;2022-09-11T06:05:40;15.22;91.75
66740;DHT22;53653;52.188;8.602;2022-09-11T06:08:07;15.23;91.49
66740;DHT22;53653;52.188;8.602;2022-09-11T06:10:36;15.23;91.31
66740;DHT22;53653;52.188;8.602;2022-09-11T06:13:10;15.26;91.55
66740;DHT22;53653;52.188;8.602;2022-09-11T06:15:36;15.29;91.80
66740;DHT22;53653;52.188;8.602;2022-09-11T06:18:01;15.32;91.40
66740;DHT22;53653;52.188;8.602;2022-09-11T06:20:27;15.35;91.44
66740;DHT22;53653;52.188;8.602;2022-09-11T06:22:53;15.33;90.98
66740;DHT22;53653;52.188;8.602;2022-09-11T06:25:19;15.38;91.17
66740;DHT22;53653;52.188;8.602;2022-09-11T06:27:44;15.40;91.13
66740;DHT22;53653;52.188;8.602;2022-09-11T06:30:10;15.39;91.26
66740;DHT22;53653;52.188;8.602;2022-09-11T06:32:35;15.42;91.26
66740;DHT22;53653;52.188;8.602;2022-09-11T06:35:01;15.43;91.14
66740;DHT22;53653;52.188;8.602;2022-09-11T06:37:26;15.43;91.34
66740;DHT22;53653;52.188;8.602;2022-09-11T06:39:52;15.52;90.88
66740;DHT22;53653;52.188;8.602;2022-09-11T06:42:17;15.49;90.38
66740;DHT22;53653;52.188;8.602;2022-09-11T06:44:43;15.52;90.28
66740;DHT22;53653;52.188;8.602;2022-09-11T06:47:08;15.46;90.54
66740;DHT22;53653;52.188;8.602;2022-09-11T06:49:34;15.42;90.88
66740;DHT22;53653;52.188;8.602;2022-09-11T06:51:59;15.46;91.23
66740;DHT22;53653;52.188;8.602;2022-09-11T06:54:24;15.36;90.67
66740;DHT22;53653;52.188;8.602;2022-09-11T06:56:50;15.35;90.76
66740;DHT22;53653;52.188;8.602;2022-09-11T06:59:15;15.33;90.74
66740;DHT22;53653;52.188;8.602;2022-09-11T07:01:40;15.39;90.81
66740;DHT22;53653;52.188;8.602;2022-09-11T07:04:06;15.44;90.24
66740;DHT22;53653;52.188;8.602;2022-09-11T07:06:31;15.54;90.02
66740;DHT22;53653;52.188;8.602;2022-09-11T07:08:59;15.63;89.29
66740;DHT22;53653;52.188;8.602;2022-09-11T07:11:30;15.69;89.19
66740;DHT22;53653;52.188;8.602;2022-09-11T07:13:57;15.71;88.97
66740;DHT22;53653;52.188;8.602;2022-09-11T07:16:22;15.74;88.73
66740;DHT22;53653;52.188;8.602;2022-09-11T07:18:48;15.71;88.40
66740;DHT22;53653;52.188;8.602;2022-09-11T07:21:18;15.66;88.23
66740;DHT22;53653;52.188;8.602;2022-09-11T07:23:47;15.64;88.58
66740;DHT22;53653;52.188;8.602;2022-09-11T07:26:14;15.49;88.94
66740;DHT22;53653;52.188;8.602;2022-09-11T07:28:40;15.56;89.68
66740;DHT22;53653;52.188;8.602;2022-09-11T07:31:08;15.63;89.01
66740;DHT22;53653;52.188;8.602;2022-09-11T07:33:38;15.66;88.95
66740;DHT22;53653;52.188;8.602;2022-09-11T07:36:09;15.70;88.79
66740;DHT22;53653;52.188;8.602;2022-09-11T07:38:39;15.79;88.83
66740;DHT22;53653;52.188;8.602;2022-09-11T07:41:06;15.87;88.69
66740;DHT22;53653;52.188;8.602;2022-09-11T07:43:33;15.94;88.47
66740;DHT22;53653;52.188;8.602;2022-09-11T07:45:59;16.00;88.03
66740;DHT22;53653;52.188;8.602;2022-09-11T07:48:24;15.97;87.53
66740;DHT22;53653;52.188;8.602;2022-09-11T07:51:03;15.93;87.88
66740;DHT22;53653;52.188;8.602;2022-09-11T07:53:40;15.97;87.63
66740;DHT22;53653;52.188;8.602;2022-09-11T07:56:14;16.05;87.56
66740;DHT22;53653;52.188;8.602;2022-09-11T07:58:41;16.12;87.23
66740;DHT22;53653;52.188;8.602;2022-09-11T08:01:11;16.17;87.35
66740;DHT22;53653;52.188;8.602;2022-09-11T08:03:36;16.20;87.37
66740;DHT22;53653;52.188;8.602;2022-09-11T08:06:05;16.24;87.23
66740;DHT22;53653;52.188;8.602;2022-09-11T08:08:31;16.28;86.90
66740;DHT22;53653;52.188;8.602;2022-09-11T08:11:20;16.31;87.01
66740;DHT22;53653;52.188;8.602;2022-09-11T08:13:55;16.36;86.78
66740;DHT22;53653;52.188;8.602;2022-09-11T08:16:25;16.38;86.51
66740;DHT22;53653;52.188;8.602;2022-09-11T08:18:51;16.42;86.05
66740;DHT22;53653;52.188;8.602;2022-09-11T08:21:17;16.44;86.11
66740;DHT22;53653;52.188;8.602;2022-09-11T08:23:44;16.44;85.93
66740;DHT22;53653;52.188;8.602;2022-09-11T08:26:21;16.35;86.29
66740;DHT22;53653;52.188;8.602;2022-09-11T08:28:48;16.35;86.25
66740;DHT22;53653;52.188;8.602;2022-09-11T08:31:15;16.28;86.48
66740;DHT22;53653;52.188;8.602;2022-09-11T08:33:40;16.31;86.94
66740;DHT22;53653;52.188;8.602;2022-09-11T08:36:09;16.33;86.16
66740;DHT22;53653;52.188;8.602;2022-09-11T08:38:35;16.42;86.07
66740;DHT22;53653;52.188;8.602;2022-09-11T08:43:36;16.58;85.38
66740;DHT22;53653;52.188;8.602;2022-09-11T08:46:09;16.73;85.30
66740;DHT22;53653;52.188;8.602;2022-09-11T08:49:00;16.90;83.98
66740;DHT22;53653;52.188;8.602;2022-09-11T08:51:27;17.07;83.44
66740;DHT22;53653;52.188;8.602;2022-09-11T08:53:55;16.97;83.18
66740;DHT22;53653;52.188;8.602;2022-09-11T08:56:22;16.90;83.55
66740;DHT22;53653;52.188;8.602;2022-09-11T08:59:13;16.86;83.69
66740;DHT22;53653;52.188;8.602;2022-09-11T09:07:37;17.00;83.28
66740;DHT22;53653;52.188;8.602;2022-09-11T09:18:40;17.14;83.33
66740;DHT22;53653;52.188;8.602;2022-09-11T09:21:17;17.14;82.77
66740;DHT22;53653;52.188;8.602;2022-09-11T09:23:53;17.10;82.74
66740;DHT22;53653;52.188;8.602;2022-09-11T09:26:19;17.06;83.21
66740;DHT22;53653;52.188;8.602;2022-09-11T09:28:47;16.96;83.78
66740;DHT22;53653;52.188;8.602;2022-09-11T09:31:21;16.89;83.98
66740;DHT22;53653;52.188;8.602;2022-09-11T09:34:00;16.75;84.49
66740;DHT22;53653;52.188;8.602;2022-09-11T09:36:32;16.81;84.81
66740;DHT22;53653;52.188;8.602;2022-09-11T09:39:00;16.83;84.58
66740;DHT22;53653;52.188;8.602;2022-09-11T09:46:43;17.34;82.45
66740;DHT22;53653;52.188;8.602;2022-09-11T09:49:16;17.24;82.20
66740;DHT22;53653;52.188;8.602;2022-09-11T09:51:43;17.32;82.25
66740;DHT22;53653;52.188;8.602;2022-09-11T09:54:13;17.37;82.11
66740;DHT22;53653;52.188;8.602;2022-09-11T09:56:42;17.37;82.02
66740;DHT22;53653;52.188;8.602;2022-09-11T09:59:18;17.35;82.36
66740;DHT22;53653;52.188;8.602;2022-09-11T10:01:50;17.49;81.82
66740;DHT22;53653;52.188;8.602;2022-09-11T10:04:21;17.62;81.58
66740;DHT22;53653;52.188;8.602;2022-09-11T10:06:51;17.76;80.45
66740;DHT22;53653;52.188;8.602;2022-09-11T10:09:20;17.87;80.69
66740;DHT22;53653;52.188;8.602;2022-09-11T10:11:53;18.03;80.13
66740;DHT22;53653;52.188;8.602;2022-09-11T10:14:21;18.12;79.36
66740;DHT22;53653;52.188;8.602;2022-09-11T10:16:48;18.16;79.68
66740;DHT22;53653;52.188;8.602;2022-09-11T10:19:41;18.16;79.05
66740;DHT22;53653;52.188;8.602;2022-09-11T10:22:30;18.18;79.52
66740;DHT22;53653;52.188;8.602;2022-09-11T10:25:09;18.13;78.85
66740;DHT22;53653;52.188;8.602;2022-09-11T10:28:04;18.17;78.46
66740;DHT22;53653;52.188;8.602;2022-09-11T10:30:38;18.10;78.63
66740;DHT22;53653;52.188;8.602;2022-09-11T10:33:24;18.03;79.00
66740;DHT22;53653;52.188;8.602;2022-09-11T10:35:54;17.93;79.46
66740;DHT22;53653;52.188;8.602;2022-09-11T10:38:28;17.85;80.52
66740;DHT22;53653;52.188;8.602;2022-09-11T10:41:04;17.90;80.41
66740;DHT22;53653;52.188;8.602;2022-09-11T10:44:02;17.95;79.59
66740;DHT22;53653;52.188;8.602;2022-09-11T10:46:34;17.95;79.51
66740;DHT22;53653;52.188;8.602;2022-09-11T10:51:28;17.93;80.40
66740;DHT22;53653;52.188;8.602;2022-09-11T10:59:47;18.16;79.59
66740;DHT22;53653;52.188;8.602;2022-09-11T11:02:42;18.20;79.19
66740;DHT22;53653;52.188;8.602;2022-09-11T11:05:39;18.37;79.22
66740;DHT22;53653;52.188;8.602;2022-09-11T11:08:44;18.55;77.66
66740;DHT22;53653;52.188;8.602;2022-09-11T11:24:14;19.89;72.90
66740;DHT22;53653;52.188;8.602;2022-09-11T11:29:30;20.37;70.47
66740;DHT22;53653;52.188;8.602;2022-09-11T11:37:58;20.60;68.20
66740;DHT22;53653;52.188;8.602;2022-09-11T11:40:30;20.65;67.58
66740;DHT22;53653;52.188;8.602;2022-09-11T11:43:05;20.62;68.26
66740;DHT22;53653;52.188;8.602;2022-09-11T11:45:42;20.55;67.66
66740;DHT22;53653;52.188;8.602;2022-09-11T11:48:19;20.62;67.59
66740;DHT22;53653;52.188;8.602;2022-09-11T11:51:09;20.88;67.04
66740;DHT22;53653;52.188;8.602;2022-09-11T11:58:56;22.17;62.74
66740;DHT22;53653;52.188;8.602;2022-09-11T12:04:08;20.97;66.98
66740;DHT22;53653;52.188;8.602;2022-09-11T12:06:37;20.73;67.84
66740;DHT22;53653;52.188;8.602;2022-09-11T12:09:04;20.53;67.69
66740;DHT22;53653;52.188;8.602;2022-09-11T12:11:33;20.45;67.97
66740;DHT22;53653;52.188;8.602;2022-09-11T12:13:59;20.08;68.90
66740;DHT22;53653;52.188;8.602;2022-09-11T12:16:27;20.08;69.42
66740;DHT22;53653;52.188;8.602;2022-09-11T12:19:05;19.95;69.37
66740;DHT22;53653;52.188;8.602;2022-09-11T12:21:37;19.71;69.98
66740;DHT22;53653;52.188;8.602;2022-09-11T12:26:29;20.65;67.91
66740;DHT22;53653;52.188;8.602;2022-09-11T12:37:05;21.05;64.63
66740;DHT22;53653;52.188;8.602;2022-09-11T12:39:49;21.49;63.15
66740;DHT22;53653;52.188;8.602;2022-09-11T12:45:32;22.82;60.18
66740;DHT22;53653;52.188;8.602;2022-09-11T12:48:04;22.98;58.06
66740;DHT22;53653;52.188;8.602;2022-09-11T12:50:30;23.00;57.59
66740;DHT22;53653;52.188;8.602;2022-09-11T12:52:56;23.02;57.88
66740;DHT22;53653;52.188;8.602;2022-09-11T12:55:38;23.44;55.76
66740;DHT22;53653;52.188;8.602;2022-09-11T13:00:45;23.68;55.03
66740;DHT22;53653;52.188;8.602;2022-09-11T13:03:21;23.68;53.81
66740;DHT22;53653;52.188;8.602;2022-09-11T13:05:57;23.81;54.11
66740;DHT22;53653;52.188;8.602;2022-09-11T13:08:26;23.57;55.22
66740;DHT22;53653;52.188;8.602;2022-09-11T13:10:56;23.74;55.09
66740;DHT22;53653;52.188;8.602;2022-09-11T13:13:42;23.51;55.86
66740;DHT22;53653;52.188;8.602;2022-09-11T13:16:23;23.51;56.10
66740;DHT22;53653;52.188;8.602;2022-09-11T13:18:50;23.16;56.66
66740;DHT22;53653;52.188;8.602;2022-09-11T13:21:17;22.94;58.14
66740;DHT22;53653;52.188;8.602;2022-09-11T13:23:46;22.78;58.46
66740;DHT22;53653;52.188;8.602;2022-09-11T13:26:32;22.34;59.29
66740;DHT22;53653;52.188;8.602;2022-09-11T13:28:59;22.47;59.32
66740;DHT22;53653;52.188;8.602;2022-09-11T13:31:32;22.48;58.53
66740;DHT22;53653;52.188;8.602;2022-09-11T13:33:59;22.73;58.17
66740;DHT22;53653;52.188;8.602;2022-09-11T13:36:26;22.78;57.94
66740;DHT22;53653;52.188;8.602;2022-09-11T13:38:56;22.92;57.04
66740;DHT22;53653;52.188;8.602;2022-09-11T13:41:28;23.17;56.41
66740;DHT22;53653;52.188;8.602;2022-09-11T13:43:57;23.17;56.54
66740;DHT22;53653;52.188;8.602;2022-09-11T13:46:26;23.79;53.37
66740;DHT22;53653;52.188;8.602;2022-09-11T13:51:49;24.36;51.52
66740;DHT22;53653;52.188;8.602;2022-09-11T13:54:22;24.44;51.30
66740;DHT22;53653;52.188;8.602;2022-09-11T14:05:15;23.06;54.73
66740;DHT22;53653;52.188;8.602;2022-09-11T14:08:00;23.15;53.53
66740;DHT22;53653;52.188;8.602;2022-09-11T14:10:31;22.98;55.36
66740;DHT22;53653;52.188;8.602;2022-09-11T14:13:30;23.16;54.43
66740;DHT22;53653;52.188;8.602;2022-09-11T14:16:07;23.22;53.30
66740;DHT22;53653;52.188;8.602;2022-09-11T14:21:10;22.43;55.99
66740;DHT22;53653;52.188;8.602;2022-09-11T14:23:49;22.51;56.56
66740;DHT22;53653;52.188;8.602;2022-09-11T14:26:20;22.28;56.26
66740;DHT22;53653;52.188;8.602;2022-09-11T14:31:40;23.07;53.06
66740;DHT22;53653;52.188;8.602;2022-09-11T14:34:19;23.02;53.26
66740;DHT22;53653;52.188;8.602;2022-09-11T14:39:37;22.99;54.63
66740;DHT22;53653;52.188;8.602;2022-09-11T14:42:00;23.31;51.72
66740;DHT22;53653;52.188;8.602;2022-09-11T14:44:27;23.34;51.88
66740;DHT22;53653;52.188;8.602;2022-09-11T14:46:53;23.31;52.24
66740;DHT22;53653;52.188;8.602;2022-09-11T14:49:19;23.13;53.53
66740;DHT22;53653;52.188;8.602;2022-09-11T14:51:52;23.27;52.33
66740;DHT22;53653;52.188;8.602;2022-09-11T14:54:19;23.42;52.36
66740;DHT22;53653;52.188;8.602;2022-09-11T14:56:45;23.13;52.50
66740;DHT22;53653;52.188;8.602;2022-09-11T14:59:12;23.00;52.81
66740;DHT22;53653;52.188;8.602;2022-09-11T15:01:38;22.98;52.48
66740;DHT22;53653;52.188;8.602;2022-09-11T15:04:03;22.86;53.68
66740;DHT22;53653;52.188;8.602;2022-09-11T15:06:29;22.86;53.52
66740;DHT22;53653;52.188;8.602;2022-09-11T15:08:55;22.89;54.00
66740;DHT22;53653;52.188;8.602;2022-09-11T15:11:20;22.92;54.86
66740;DHT22;53653;52.188;8.602;2022-09-11T15:13:46;22.95;55.25
66740;DHT22;53653;52.188;8.602;2022-09-11T15:16:12;23.07;54.03
66740;DHT22;53653;52.188;8.602;2022-09-11T15:18:37;22.98;54.23
66740;DHT22;53653;52.188;8.602;2022-09-11T15:21:05;22.76;53.14
66740;DHT22;53653;52.188;8.602;2022-09-11T15:23:30;22.55;53.17
66740;DHT22;53653;52.188;8.602;2022-09-11T15:25:59;22.54;54.49
66740;DHT22;53653;52.188;8.602;2022-09-11T15:28:28;22.55;54.68
66740;DHT22;53653;52.188;8.602;2022-09-11T15:30:56;22.43;54.01
66740;DHT22;53653;52.188;8.602;2022-09-11T15:33:27;22.41;54.98
66740;DHT22;53653;52.188;8.602;2022-09-11T15:35:59;22.44;54.05
66740;DHT22;53653;52.188;8.602;2022-09-11T15:38:25;22.36;54.56
66740;DHT22;53653;52.188;8.602;2022-09-11T15:40:53;22.28;54.58
66740;DHT22;53653;52.188;8.602;2022-09-11T15:43:32;22.17;55.55
66740;DHT22;53653;52.188;8.602;2022-09-11T15:45:59;22.03;56.62
66740;DHT22;53653;52.188;8.602;2022-09-11T15:48:25;21.89;56.79
66740;DHT22;53653;52.188;8.602;2022-09-11T15:51:01;21.72;57.82
66740;DHT22;53653;52.188;8.602;2022-09-11T15:53:28;21.52;58.87
66740;DHT22;53653;52.188;8.602;2022-09-11T15:56:21;21.30;59.50
66740;DHT22;53653;52.188;8.602;2022-09-11T15:58:47;21.17;60.05
66740;DHT22;53653;52.188;8.602;2022-09-11T16:01:30;21.01;60.35
66740;DHT22;53653;52.188;8.602;2022-09-11T16:04:03;20.93;59.79
66740;DHT22;53653;52.188;8.602;2022-09-11T16:06:31;20.90;60.91
66740;DHT22;53653;52.188;8.602;2022-09-11T16:08:59;20.81;61.35
66740;DHT22;53653;52.188;8.602;2022-09-11T16:11:29;20.81;61.84
66740;DHT22;53653;52.188;8.602;2022-09-11T16:13:56;20.80;61.60
66740;DHT22;53653;52.188;8.602;2022-09-11T16:16:22;20.67;61.69
66740;DHT22;53653;52.188;8.602;2022-09-11T16:18:49;20.57;61.42
66740;DHT22;53653;52.188;8.602;2022-09-11T16:21:15;20.57;62.38
66740;DHT22;53653;52.188;8.602;2022-09-11T16:23:41;20.52;62.51
66740;DHT22;53653;52.188;8.602;2022-09-11T16:26:11;20.55;62.09
66740;DHT22;53653;52.188;8.602;2022-09-11T16:28:38;20.56;62.31
66740;DHT22;53653;52.188;8.602;2022-09-11T16:31:05;20.53;62.17
66740;DHT22;53653;52.188;8.602;2022-09-11T16:33:32;20.53;62.43
66740;DHT22;53653;52.188;8.602;2022-09-11T16:36:03;20.50;62.97
66740;DHT22;53653;52.188;8.602;2022-09-11T16:38:31;20.50;62.81
66740;DHT22;53653;52.188;8.602;2022-09-11T16:41:06;20.39;63.38
66740;DHT22;53653;52.188;8.602;2022-09-11T16:43:39;20.33;63.61
66740;DHT22;53653;52.188;8.602;2022-09-11T16:46:06;20.26;63.88
66740;DHT22;53653;52.188;8.602;2022-09-11T16:48:33;20.21;64.57
66740;DHT22;53653;52.188;8.602;2022-09-11T16:51:03;20.08;64.81
66740;DHT22;53653;52.188;8.602;2022-09-11T16:53:31;20.09;65.10
66740;DHT22;53653;52.188;8.602;2022-09-11T16:55:57;20.07;65.46
66740;DHT22;53653;52.188;8.602;2022-09-11T16:58:23;20.08;65.38
66740;DHT22;53653;52.188;8.602;2022-09-11T17:00:49;20.11;65.22
66740;DHT22;53653;52.188;8.602;2022-09-11T17:03:15;20.07;65.27
66740;DHT22;53653;52.188;8.602;2022-09-11T17:05:49;20.02;65.62
66740;DHT22;53653;52.188;8.602;2022-09-11T17:08:15;19.97;66.01
66740;DHT22;53653;52.188;8.602;2022-09-11T17:10:43;19.88;66.21
66740;DHT22;53653;52.188;8.602;2022-09-11T17:13:08;19.88;65.90
66740;DHT22;53653;52.188;8.602;2022-09-11T17:15:34;19.87;66.13
66740;DHT22;53653;52.188;8.602;2022-09-11T17:18:00;19.85;66.23
66740;DHT22;53653;52.188;8.602;2022-09-11T17:20:25;19.82;66.30
66740;DHT22;53653;52.188;8.602;2022-09-11T17:22:53;19.77;66.96
66740;DHT22;53653;52.188;8.602;2022-09-11T17:25:18;19.75;66.79
66740;DHT22;53653;52.188;8.602;2022-09-11T17:27:44;19.74;66.98
66740;DHT22;53653;52.188;8.602;2022-09-11T17:30:10;19.75;67.30
66740;DHT22;53653;52.188;8.602;2022-09-11T17:32:37;19.73;67.17
66740;DHT22;53653;52.188;8.602;2022-09-11T17:35:03;19.70;67.02
66740;DHT22;53653;52.188;8.602;2022-09-11T17:37:29;19.59;67.58
66740;DHT22;53653;52.188;8.602;2022-09-11T17:39:55;19.47;67.62
66740;DHT22;53653;52.188;8.602;2022-09-11T17:42:22;19.37;68.52
66740;DHT22;53653;52.188;8.602;2022-09-11T17:44:48;19.26;68.28
66740;DHT22;53653;52.188;8.602;2022-09-11T17:47:13;19.16;69.93
66740;DHT22;53653;52.188;8.602;2022-09-11T17:49:39;18.98;71.32
66740;DHT22;53653;52.188;8.602;2022-09-11T17:52:05;18.75;72.05
66740;DHT22;53653;52.188;8.602;2022-09-11T17:54:31;18.64;72.37
66740;DHT22;53653;52.188;8.602;2022-09-11T17:56:57;18.60;72.62
66740;DHT22;53653;52.188;8.602;2022-09-11T17:59:23;18.51;72.24
66740;DHT22;53653;52.188;8.602;2022-09-11T18:01:49;18.50;72.22
66740;DHT22;53653;52.188;8.602;2022-09-11T18:04:15;18.58;72.77